KCNY/CNY METAR and TAF weather

Enter ICAO airport designator
Station Type Date Time Source
KCNY METAR 2020/09/24 10:53 UTC NOAA

KCNY 241053Z AUTO 26003KT 10SM CLR 12/M04 A3011 RMK AO2 SLP144 T01221039


Station Type Date Time Source
KCNY Decoded METAR 2020/09/24 10:53 UTC NOAA

MOAB CANYONLANDS FIELD, UT, United States (KCNY) 38-46N 109-45W 1390M
Sep 24, 2020 - 06:53 AM EDT / 2020.09.24 1053 UTC
Wind: from the W (260 degrees) at 3 MPH (3 KT):0
Visibility: 10 mile(s):0
Sky conditions: clear
Temperature: 54.0 F (12.2 C)
Dew Point: 25.0 F (-3.9 C)
Relative Humidity: 32%
Pressure (altimeter): 30.11 in. Hg (1019 hPa)
ob: KCNY 241053Z AUTO 26003KT 10SM CLR 12/M04 A3011 RMK AO2 SLP144 T01221039
cycle: 11

Station Type Date Time Source
KCNY TAF 2020/09/24 06:24 UTC NOAA

TAF KCNY 240521Z 2406/2506 12003KT P6SM SCT250
FM242000 21007KT P6SM SKC

Example: see airport list